Cobham, Virginia
Current Conditions -  °F | °C
As of 9:55 AM on Thursday 23 Oct 2014 (Local Time) from KGVE Reporting Station
Overcast Overcast  
Wind Chill: 55°   Ceiling: 8000
Heat Index: 55°   Visibility: 10mi
Dew Point: 42°   Wind: 6mph
Humidity: 62%   Direction: 320°NW
Pressure: 29.96"   Gusts: NA
Location:  38.06°N, 78.27°W
Report Text: KGVE 231355Z AUTO 32005KT 10SM OVC080 13/06 A2996 RMK AO1 T01270055
Loading
Personal Weather Stations






























Interactive Weather Map
Tropical Storm Tracking
New forecast layout! Learn more

10-Day Weather Forecast

Advertisements
Track Severe Weather on mobile